6°C Temp
5°C Dewpoint
% Humidity
Temperature
14 KM/H
9 MPH
8 KTS
230°
South West

Wind Speed
Partly Cloudy
Conditions
Pressure 1010.92 (hPa) - 29.85 (in)
Visibility 6.2 (mi) - 10.0 (km)

Current Conditions
EHAM
Location 6km (3.2mi)
Metar :EHAM 190025Z 23008KT 9999 FEW020 06/05 Q1011 NOSIG
Wed 19th February 02:25 am

Airport
  Metar Aviation API Data Provided by https://www.checkwx.com/ PHP scripts by weather34.com ©2020